Chippewa Valley Regional Airport
KEAU : now visible

Airfield :











YOU CAN JOIN US ON...

 
LOGIN :

Register | Disclaimer

   EN    FR    IT 

 









Legend :    VFR   Marginal VFR   IFR   Intensive IFR   Very Intensive IFR
Visi :
Ceiling :
>= 8 km
>= 3000ft
5 to 8 km
1000 to 3000 ft
1500m to 5 km
500 to 1000 ft
800 to 1500m
200 to 500 ft
< 800m
< 200 ft
Symbols :   Thunderstorms  Fog  Heavy snow  Heavy precipitations  Wind > 20 kt







- Airport Elevation : 913 ft
- IATA code : EAU


KEAU - Chippewa Valley Regional

CURRENT METAR :
  • 261556Z 34014G24KT 10SM FEW046 11/M02 A2995 RMK AO2 PK WND 30026/1542 SLP143 T01061022

EXPIRED METARs :
  • 261456Z 33014G23KT 10SM CLR 09/M01 A2994 RMK AO2 SLP141 T00941011 51009
  • 261356Z 33013G21KT 10SM CLR 08/M01 A2994 RMK AO2 PK WND 32026/1328 SLP142 T00781006

TAF KEAU
Valid from the 26 at 12:00 until the 27 at 12:00 UTC


261120Z 2612/2712 32009G15KT P6SM FEW100
FM261500 32013G24KT P6SM SKC
FM270000 36002KT P6SM FEW150
FM270900 08004KT P6SM SCT100 BKN200
KZMP FIR / North America



MET'MAP, your aeronautical weather chart ! - Copyright ORBIFLY December 2007 - Disclaimer

ORBIFLY MET'MAP TEAM :

Programming & Development : Alexandra Zaïnal
Concept & Development : Baudouin d'Aumeries
Co-Development & Prog : Marc-Olivier Méhu
Technical & hardware support : Manuel Goepfert

Contact : metmap@orbifly.com




SOURCES & CREDITS :

   NOAA       Earth
Advisory